sensor_id;sensor_type;location;lat;lon;timestamp;P1;durP1;ratioP1;P2;durP2;ratioP2
11829;SDS011;5972;42.134;24.718;2023-10-13T00:02:09;10.48;;;5.38;;
11829;SDS011;5972;42.134;24.718;2023-10-13T00:04:36;8.25;;;5.25;;
11829;SDS011;5972;42.134;24.718;2023-10-13T00:07:03;10.90;;;5.90;;
11829;SDS011;5972;42.134;24.718;2023-10-13T00:09:35;15.10;;;6.00;;
11829;SDS011;5972;42.134;24.718;2023-10-13T00:12:04;10.70;;;5.88;;
11829;SDS011;5972;42.134;24.718;2023-10-13T00:14:34;9.93;;;6.50;;
11829;SDS011;5972;42.134;24.718;2023-10-13T00:17:03;9.10;;;5.68;;
11829;SDS011;5972;42.134;24.718;2023-10-13T00:19:33;10.13;;;6.00;;
11829;SDS011;5972;42.134;24.718;2023-10-13T00:22:10;9.38;;;6.43;;
11829;SDS011;5972;42.134;24.718;2023-10-13T00:24:42;7.70;;;6.45;;
11829;SDS011;5972;42.134;24.718;2023-10-13T00:27:12;11.00;;;5.72;;
11829;SDS011;5972;42.134;24.718;2023-10-13T00:29:54;8.73;;;6.07;;
11829;SDS011;5972;42.134;24.718;2023-10-13T00:32:41;9.48;;;6.57;;
11829;SDS011;5972;42.134;24.718;2023-10-13T00:35:09;13.30;;;6.57;;
11829;SDS011;5972;42.134;24.718;2023-10-13T00:37:38;12.07;;;6.50;;
11829;SDS011;5972;42.134;24.718;2023-10-13T00:40:11;15.43;;;6.72;;
11829;SDS011;5972;42.134;24.718;2023-10-13T00:43:03;13.43;;;6.80;;
11829;SDS011;5972;42.134;24.718;2023-10-13T00:45:53;11.45;;;6.40;;
11829;SDS011;5972;42.134;24.718;2023-10-13T00:48:21;10.98;;;6.70;;
11829;SDS011;5972;42.134;24.718;2023-10-13T00:50:49;8.93;;;6.43;;
11829;SDS011;5972;42.134;24.718;2023-10-13T00:53:17;12.23;;;6.80;;
11829;SDS011;5972;42.134;24.718;2023-10-13T00:55:47;8.65;;;6.55;;
11829;SDS011;5972;42.134;24.718;2023-10-13T00:58:14;10.13;;;6.63;;
11829;SDS011;5972;42.134;24.718;2023-10-13T01:00:47;12.52;;;6.50;;
11829;SDS011;5972;42.134;24.718;2023-10-13T01:03:21;13.80;;;6.25;;
11829;SDS011;5972;42.134;24.718;2023-10-13T01:05:51;11.82;;;6.32;;
11829;SDS011;5972;42.134;24.718;2023-10-13T01:08:30;14.10;;;6.80;;
11829;SDS011;5972;42.134;24.718;2023-10-13T01:11:04;9.27;;;6.60;;
11829;SDS011;5972;42.134;24.718;2023-10-13T01:13:33;8.27;;;6.63;;
11829;SDS011;5972;42.134;24.718;2023-10-13T01:16:01;13.02;;;6.35;;
11829;SDS011;5972;42.134;24.718;2023-10-13T01:18:32;15.18;;;6.40;;
11829;SDS011;5972;42.134;24.718;2023-10-13T01:21:05;8.13;;;6.30;;
11829;SDS011;5972;42.134;24.718;2023-10-13T01:23:33;10.57;;;6.82;;
11829;SDS011;5972;42.134;24.718;2023-10-13T01:26:03;7.95;;;6.38;;
11829;SDS011;5972;42.134;24.718;2023-10-13T01:28:31;8.63;;;6.75;;
11829;SDS011;5972;42.134;24.718;2023-10-13T01:31:09;11.63;;;5.97;;
11829;SDS011;5972;42.134;24.718;2023-10-13T01:33:41;10.05;;;6.20;;
11829;SDS011;5972;42.134;24.718;2023-10-13T01:36:07;10.18;;;6.22;;
11829;SDS011;5972;42.134;24.718;2023-10-13T01:38:38;7.40;;;5.85;;
11829;SDS011;5972;42.134;24.718;2023-10-13T01:41:07;11.50;;;6.30;;
11829;SDS011;5972;42.134;24.718;2023-10-13T01:43:35;12.30;;;5.38;;
11829;SDS011;5972;42.134;24.718;2023-10-13T01:46:01;10.15;;;5.40;;
11829;SDS011;5972;42.134;24.718;2023-10-13T01:48:28;9.07;;;5.38;;
11829;SDS011;5972;42.134;24.718;2023-10-13T01:50:57;15.25;;;5.15;;
11829;SDS011;5972;42.134;24.718;2023-10-13T01:53:29;12.65;;;5.57;;
11829;SDS011;5972;42.134;24.718;2023-10-13T01:55:56;11.00;;;5.53;;
11829;SDS011;5972;42.134;24.718;2023-10-13T01:58:23;12.35;;;5.68;;
11829;SDS011;5972;42.134;24.718;2023-10-13T02:00:51;10.07;;;5.70;;
11829;SDS011;5972;42.134;24.718;2023-10-13T02:03:18;9.40;;;5.88;;
11829;SDS011;5972;42.134;24.718;2023-10-13T02:05:47;9.90;;;5.88;;
11829;SDS011;5972;42.134;24.718;2023-10-13T02:08:18;10.55;;;5.70;;
11829;SDS011;5972;42.134;24.718;2023-10-13T02:10:49;12.10;;;5.68;;
11829;SDS011;5972;42.134;24.718;2023-10-13T02:13:17;8.90;;;5.88;;
11829;SDS011;5972;42.134;24.718;2023-10-13T02:15:45;10.45;;;6.10;;
11829;SDS011;5972;42.134;24.718;2023-10-13T02:18:13;8.10;;;5.95;;
11829;SDS011;5972;42.134;24.718;2023-10-13T02:20:45;8.07;;;6.28;;
11829;SDS011;5972;42.134;24.718;2023-10-13T02:23:19;7.03;;;5.88;;
11829;SDS011;5972;42.134;24.718;2023-10-13T02:25:46;10.95;;;6.03;;
11829;SDS011;5972;42.134;24.718;2023-10-13T02:28:12;8.52;;;5.85;;
11829;SDS011;5972;42.134;24.718;2023-10-13T02:30:42;7.93;;;6.13;;
11829;SDS011;5972;42.134;24.718;2023-10-13T02:33:12;9.40;;;6.57;;
11829;SDS011;5972;42.134;24.718;2023-10-13T02:35:39;15.05;;;6.43;;
11829;SDS011;5972;42.134;24.718;2023-10-13T02:38:15;10.88;;;6.22;;
11829;SDS011;5972;42.134;24.718;2023-10-13T02:40:51;17.85;;;5.40;;
11829;SDS011;5972;42.134;24.718;2023-10-13T02:43:19;12.20;;;5.63;;
11829;SDS011;5972;42.134;24.718;2023-10-13T02:45:53;16.00;;;5.90;;
11829;SDS011;5972;42.134;24.718;2023-10-13T02:48:24;14.55;;;6.15;;
11829;SDS011;5972;42.134;24.718;2023-10-13T02:50:56;11.07;;;5.25;;
11829;SDS011;5972;42.134;24.718;2023-10-13T02:53:23;7.57;;;5.55;;
11829;SDS011;5972;42.134;24.718;2023-10-13T02:55:53;10.55;;;5.47;;
11829;SDS011;5972;42.134;24.718;2023-10-13T02:58:22;14.02;;;5.55;;
11829;SDS011;5972;42.134;24.718;2023-10-13T03:01:05;10.32;;;5.65;;
11829;SDS011;5972;42.134;24.718;2023-10-13T03:03:42;10.13;;;5.57;;
11829;SDS011;5972;42.134;24.718;2023-10-13T03:06:13;15.68;;;5.45;;
11829;SDS011;5972;42.134;24.718;2023-10-13T03:08:39;8.15;;;5.90;;
11829;SDS011;5972;42.134;24.718;2023-10-13T03:11:08;10.43;;;5.35;;
11829;SDS011;5972;42.134;24.718;2023-10-13T03:13:35;10.95;;;5.72;;
11829;SDS011;5972;42.134;24.718;2023-10-13T03:16:11;8.52;;;5.43;;
11829;SDS011;5972;42.134;24.718;2023-10-13T03:18:41;10.05;;;5.82;;
11829;SDS011;5972;42.134;24.718;2023-10-13T03:21:16;9.65;;;5.20;;
11829;SDS011;5972;42.134;24.718;2023-10-13T03:23:53;6.20;;;5.40;;
11829;SDS011;5972;42.134;24.718;2023-10-13T03:26:21;9.77;;;5.55;;
11829;SDS011;5972;42.134;24.718;2023-10-13T03:28:46;10.10;;;5.80;;
11829;SDS011;5972;42.134;24.718;2023-10-13T03:31:18;7.28;;;5.15;;
11829;SDS011;5972;42.134;24.718;2023-10-13T03:33:52;10.40;;;5.45;;
11829;SDS011;5972;42.134;24.718;2023-10-13T03:36:24;8.82;;;5.38;;
11829;SDS011;5972;42.134;24.718;2023-10-13T03:39:21;12.20;;;5.68;;
11829;SDS011;5972;42.134;24.718;2023-10-13T03:41:53;9.32;;;5.53;;
11829;SDS011;5972;42.134;24.718;2023-10-13T03:44:21;13.00;;;5.60;;
11829;SDS011;5972;42.134;24.718;2023-10-13T03:46:56;8.10;;;5.07;;
11829;SDS011;5972;42.134;24.718;2023-10-13T03:49:33;9.65;;;5.85;;
11829;SDS011;5972;42.134;24.718;2023-10-13T03:52:03;12.02;;;5.53;;
11829;SDS011;5972;42.134;24.718;2023-10-13T03:54:31;16.20;;;5.93;;
11829;SDS011;5972;42.134;24.718;2023-10-13T03:57:00;10.13;;;5.10;;
11829;SDS011;5972;42.134;24.718;2023-10-13T03:59:36;8.75;;;5.15;;
11829;SDS011;5972;42.134;24.718;2023-10-13T04:02:04;13.13;;;4.78;;
11829;SDS011;5972;42.134;24.718;2023-10-13T04:04:37;10.15;;;5.20;;
11829;SDS011;5972;42.134;24.718;2023-10-13T04:07:13;7.18;;;4.70;;
11829;SDS011;5972;42.134;24.718;2023-10-13T04:10:05;9.43;;;4.75;;
11829;SDS011;5972;42.134;24.718;2023-10-13T04:12:56;11.27;;;5.60;;
11829;SDS011;5972;42.134;24.718;2023-10-13T04:15:42;8.55;;;5.03;;
11829;SDS011;5972;42.134;24.718;2023-10-13T04:18:29;6.22;;;4.65;;
11829;SDS011;5972;42.134;24.718;2023-10-13T04:21:29;9.23;;;5.40;;
11829;SDS011;5972;42.134;24.718;2023-10-13T04:24:05;9.50;;;5.50;;
11829;SDS011;5972;42.134;24.718;2023-10-13T04:26:49;11.88;;;5.18;;
11829;SDS011;5972;42.134;24.718;2023-10-13T04:29:30;11.50;;;5.57;;
11829;SDS011;5972;42.134;24.718;2023-10-13T04:32:27;13.95;;;5.10;;
11829;SDS011;5972;42.134;24.718;2023-10-13T04:34:55;9.93;;;4.95;;
11829;SDS011;5972;42.134;24.718;2023-10-13T04:37:24;10.35;;;5.53;;
11829;SDS011;5972;42.134;24.718;2023-10-13T04:39:55;13.05;;;5.82;;
11829;SDS011;5972;42.134;24.718;2023-10-13T04:42:25;7.53;;;4.85;;
11829;SDS011;5972;42.134;24.718;2023-10-13T04:45:15;17.88;;;5.78;;
11829;SDS011;5972;42.134;24.718;2023-10-13T04:48:05;10.27;;;5.68;;
11829;SDS011;5972;42.134;24.718;2023-10-13T04:50:58;11.32;;;5.05;;
11829;SDS011;5972;42.134;24.718;2023-10-13T04:53:47;8.32;;;4.85;;
11829;SDS011;5972;42.134;24.718;2023-10-13T04:56:27;10.65;;;5.38;;
11829;SDS011;5972;42.134;24.718;2023-10-13T04:59:11;9.68;;;5.00;;
11829;SDS011;5972;42.134;24.718;2023-10-13T05:01:43;15.40;;;5.03;;
11829;SDS011;5972;42.134;24.718;2023-10-13T05:04:43;9.30;;;5.47;;
11829;SDS011;5972;42.134;24.718;2023-10-13T05:07:23;10.13;;;5.30;;
11829;SDS011;5972;42.134;24.718;2023-10-13T05:10:08;15.60;;;5.82;;
11829;SDS011;5972;42.134;24.718;2023-10-13T05:12:52;12.32;;;5.32;;
11829;SDS011;5972;42.134;24.718;2023-10-13T05:15:42;17.45;;;5.47;;
11829;SDS011;5972;42.134;24.718;2023-10-13T05:18:27;13.20;;;5.47;;
11829;SDS011;5972;42.134;24.718;2023-10-13T05:21:13;13.23;;;5.35;;
11829;SDS011;5972;42.134;24.718;2023-10-13T05:23:57;8.40;;;5.50;;
11829;SDS011;5972;42.134;24.718;2023-10-13T05:26:37;10.32;;;5.10;;
11829;SDS011;5972;42.134;24.718;2023-10-13T05:29:22;12.55;;;5.13;;
11829;SDS011;5972;42.134;24.718;2023-10-13T05:32:06;8.13;;;5.28;;
11829;SDS011;5972;42.134;24.718;2023-10-13T05:34:51;9.10;;;5.15;;
11829;SDS011;5972;42.134;24.718;2023-10-13T05:37:37;13.57;;;5.63;;
11829;SDS011;5972;42.134;24.718;2023-10-13T05:40:21;9.68;;;5.65;;
11829;SDS011;5972;42.134;24.718;2023-10-13T05:43:06;10.20;;;5.47;;
11829;SDS011;5972;42.134;24.718;2023-10-13T05:45:52;17.33;;;4.78;;
11829;SDS011;5972;42.134;24.718;2023-10-13T05:48:36;8.20;;;3.80;;
11829;SDS011;5972;42.134;24.718;2023-10-13T05:51:34;10.02;;;4.53;;
11829;SDS011;5972;42.134;24.718;2023-10-13T05:54:13;10.80;;;4.72;;
11829;SDS011;5972;42.134;24.718;2023-10-13T05:56:59;9.27;;;4.63;;
11829;SDS011;5972;42.134;24.718;2023-10-13T05:59:44;7.80;;;3.92;;
11829;SDS011;5972;42.134;24.718;2023-10-13T06:02:28;13.20;;;5.78;;
11829;SDS011;5972;42.134;24.718;2023-10-13T06:05:13;7.95;;;4.00;;
11829;SDS011;5972;42.134;24.718;2023-10-13T06:07:58;9.32;;;3.92;;
11829;SDS011;5972;42.134;24.718;2023-10-13T06:10:44;8.00;;;3.88;;
11829;SDS011;5972;42.134;24.718;2023-10-13T06:13:29;10.43;;;3.75;;
11829;SDS011;5972;42.134;24.718;2023-10-13T06:16:14;14.40;;;3.80;;
11829;SDS011;5972;42.134;24.718;2023-10-13T06:19:00;14.55;;;4.78;;
11829;SDS011;5972;42.134;24.718;2023-10-13T06:21:44;12.35;;;4.00;;
11829;SDS011;5972;42.134;24.718;2023-10-13T06:24:29;8.35;;;4.15;;
11829;SDS011;5972;42.134;24.718;2023-10-13T06:27:15;17.17;;;5.43;;
11829;SDS011;5972;42.134;24.718;2023-10-13T06:30:00;21.33;;;5.65;;
11829;SDS011;5972;42.134;24.718;2023-10-13T06:32:28;13.02;;;4.78;;
11829;SDS011;5972;42.134;24.718;2023-10-13T06:34:55;16.60;;;4.57;;
11829;SDS011;5972;42.134;24.718;2023-10-13T06:37:23;8.55;;;3.97;;
11829;SDS011;5972;42.134;24.718;2023-10-13T06:39:55;12.52;;;4.28;;
11829;SDS011;5972;42.134;24.718;2023-10-13T06:42:25;10.55;;;4.25;;
11829;SDS011;5972;42.134;24.718;2023-10-13T06:44:53;12.05;;;4.53;;
11829;SDS011;5972;42.134;24.718;2023-10-13T06:47:21;7.15;;;3.53;;
11829;SDS011;5972;42.134;24.718;2023-10-13T06:49:49;7.88;;;3.67;;
11829;SDS011;5972;42.134;24.718;2023-10-13T06:52:17;11.68;;;3.92;;
11829;SDS011;5972;42.134;24.718;2023-10-13T06:54:43;9.35;;;3.88;;
11829;SDS011;5972;42.134;24.718;2023-10-13T06:57:11;11.93;;;3.97;;
11829;SDS011;5972;42.134;24.718;2023-10-13T06:59:42;8.20;;;4.15;;
11829;SDS011;5972;42.134;24.718;2023-10-13T07:02:09;16.50;;;4.18;;
11829;SDS011;5972;42.134;24.718;2023-10-13T07:04:45;14.85;;;4.35;;
11829;SDS011;5972;42.134;24.718;2023-10-13T07:07:12;13.05;;;4.10;;
11829;SDS011;5972;42.134;24.718;2023-10-13T07:09:41;15.23;;;4.20;;
11829;SDS011;5972;42.134;24.718;2023-10-13T07:12:14;9.85;;;3.80;;
11829;SDS011;5972;42.134;24.718;2023-10-13T07:14:49;18.60;;;4.40;;
11829;SDS011;5972;42.134;24.718;2023-10-13T07:17:19;7.95;;;4.03;;
11829;SDS011;5972;42.134;24.718;2023-10-13T07:19:50;12.00;;;4.40;;
11829;SDS011;5972;42.134;24.718;2023-10-13T07:22:24;14.20;;;4.00;;
11829;SDS011;5972;42.134;24.718;2023-10-13T07:24:53;7.00;;;3.67;;
11829;SDS011;5972;42.134;24.718;2023-10-13T07:27:23;16.63;;;4.32;;
11829;SDS011;5972;42.134;24.718;2023-10-13T07:29:51;12.88;;;4.80;;
11829;SDS011;5972;42.134;24.718;2023-10-13T07:32:30;8.52;;;4.20;;
11829;SDS011;5972;42.134;24.718;2023-10-13T07:34:59;9.73;;;4.00;;
11829;SDS011;5972;42.134;24.718;2023-10-13T07:37:36;5.57;;;3.72;;
11829;SDS011;5972;42.134;24.718;2023-10-13T07:40:07;15.80;;;4.10;;
11829;SDS011;5972;42.134;24.718;2023-10-13T07:42:47;10.25;;;4.03;;
11829;SDS011;5972;42.134;24.718;2023-10-13T07:45:17;15.32;;;4.53;;
11829;SDS011;5972;42.134;24.718;2023-10-13T07:47:47;15.55;;;4.53;;
11829;SDS011;5972;42.134;24.718;2023-10-13T07:50:15;11.55;;;4.07;;
11829;SDS011;5972;42.134;24.718;2023-10-13T07:52:49;5.70;;;3.72;;
11829;SDS011;5972;42.134;24.718;2023-10-13T07:55:24;9.57;;;3.60;;
11829;SDS011;5972;42.134;24.718;2023-10-13T07:57:51;8.93;;;3.72;;
11829;SDS011;5972;42.134;24.718;2023-10-13T08:00:25;8.85;;;3.63;;
11829;SDS011;5972;42.134;24.718;2023-10-13T08:03:04;12.38;;;8.18;;
11829;SDS011;5972;42.134;24.718;2023-10-13T08:05:51;11.95;;;4.28;;
11829;SDS011;5972;42.134;24.718;2023-10-13T08:08:23;10.35;;;3.60;;
11829;SDS011;5972;42.134;24.718;2023-10-13T08:11:00;7.28;;;3.88;;
11829;SDS011;5972;42.134;24.718;2023-10-13T08:13:33;18.35;;;4.30;;
11829;SDS011;5972;42.134;24.718;2023-10-13T08:16:03;10.38;;;4.13;;
11829;SDS011;5972;42.134;24.718;2023-10-13T08:18:34;20.38;;;4.47;;
11829;SDS011;5972;42.134;24.718;2023-10-13T08:21:01;11.10;;;4.20;;
11829;SDS011;5972;42.134;24.718;2023-10-13T08:23:29;9.85;;;4.10;;
11829;SDS011;5972;42.134;24.718;2023-10-13T08:26:15;12.23;;;4.32;;
11829;SDS011;5972;42.134;24.718;2023-10-13T08:29:22;9.38;;;3.92;;
11829;SDS011;5972;42.134;24.718;2023-10-13T08:32:07;10.55;;;4.03;;
11829;SDS011;5972;42.134;24.718;2023-10-13T08:34:46;14.85;;;4.38;;
11829;SDS011;5972;42.134;24.718;2023-10-13T08:37:34;11.63;;;4.90;;
11829;SDS011;5972;42.134;24.718;2023-10-13T08:40:13;22.92;;;5.10;;
11829;SDS011;5972;42.134;24.718;2023-10-13T08:43:06;15.43;;;4.45;;
11829;SDS011;5972;42.134;24.718;2023-10-13T08:45:37;10.70;;;4.03;;
11829;SDS011;5972;42.134;24.718;2023-10-13T08:48:25;14.50;;;4.40;;
11829;SDS011;5972;42.134;24.718;2023-10-13T08:50:57;11.82;;;4.00;;
11829;SDS011;5972;42.134;24.718;2023-10-13T08:53:35;15.10;;;3.72;;
11829;SDS011;5972;42.134;24.718;2023-10-13T08:56:11;11.45;;;4.18;;
11829;SDS011;5972;42.134;24.718;2023-10-13T08:58:41;11.43;;;4.32;;
11829;SDS011;5972;42.134;24.718;2023-10-13T09:01:27;10.35;;;4.38;;
11829;SDS011;5972;42.134;24.718;2023-10-13T09:04:04;7.70;;;4.60;;
11829;SDS011;5972;42.134;24.718;2023-10-13T09:06:47;19.55;;;4.40;;
11829;SDS011;5972;42.134;24.718;2023-10-13T09:09:33;9.23;;;4.05;;
11829;SDS011;5972;42.134;24.718;2023-10-13T09:12:23;9.50;;;3.88;;
11829;SDS011;5972;42.134;24.718;2023-10-13T09:15:01;10.30;;;3.70;;
11829;SDS011;5972;42.134;24.718;2023-10-13T09:17:31;9.63;;;4.18;;
11829;SDS011;5972;42.134;24.718;2023-10-13T09:20:03;9.18;;;4.28;;
11829;SDS011;5972;42.134;24.718;2023-10-13T09:22:49;9.45;;;4.63;;
11829;SDS011;5972;42.134;24.718;2023-10-13T09:25:33;12.38;;;4.38;;
11829;SDS011;5972;42.134;24.718;2023-10-13T09:28:00;8.27;;;4.28;;
11829;SDS011;5972;42.134;24.718;2023-10-13T09:30:27;12.40;;;4.45;;
11829;SDS011;5972;42.134;24.718;2023-10-13T09:32:59;14.73;;;4.57;;
11829;SDS011;5972;42.134;24.718;2023-10-13T09:35:29;15.30;;;4.97;;
11829;SDS011;5972;42.134;24.718;2023-10-13T09:37:59;15.27;;;5.00;;
11829;SDS011;5972;42.134;24.718;2023-10-13T09:40:28;17.50;;;4.70;;
11829;SDS011;5972;42.134;24.718;2023-10-13T09:43:00;17.73;;;4.63;;
11829;SDS011;5972;42.134;24.718;2023-10-13T09:45:33;8.60;;;4.38;;
11829;SDS011;5972;42.134;24.718;2023-10-13T09:48:04;11.63;;;4.80;;
11829;SDS011;5972;42.134;24.718;2023-10-13T09:50:43;10.77;;;4.80;;
11829;SDS011;5972;42.134;24.718;2023-10-13T09:53:11;14.25;;;4.85;;
11829;SDS011;5972;42.134;24.718;2023-10-13T09:55:43;20.83;;;4.60;;
11829;SDS011;5972;42.134;24.718;2023-10-13T09:58:13;14.80;;;5.15;;
11829;SDS011;5972;42.134;24.718;2023-10-13T10:00:45;7.93;;;4.53;;
11829;SDS011;5972;42.134;24.718;2023-10-13T10:03:22;10.90;;;4.20;;
11829;SDS011;5972;42.134;24.718;2023-10-13T10:06:06;10.07;;;4.30;;
11829;SDS011;5972;42.134;24.718;2023-10-13T10:08:38;11.48;;;4.47;;
11829;SDS011;5972;42.134;24.718;2023-10-13T10:14:22;13.48;;;4.78;;
11829;SDS011;5972;42.134;24.718;2023-10-13T10:16:59;11.43;;;5.30;;
11829;SDS011;5972;42.134;24.718;2023-10-13T10:19:44;17.80;;;4.40;;
11829;SDS011;5972;42.134;24.718;2023-10-13T10:22:24;8.10;;;4.35;;
11829;SDS011;5972;42.134;24.718;2023-10-13T10:24:56;9.57;;;4.30;;
11829;SDS011;5972;42.134;24.718;2023-10-13T10:27:24;11.00;;;4.85;;
11829;SDS011;5972;42.134;24.718;2023-10-13T10:29:54;15.13;;;4.40;;
11829;SDS011;5972;42.134;24.718;2023-10-13T10:32:31;8.90;;;4.40;;
11829;SDS011;5972;42.134;24.718;2023-10-13T10:35:02;15.15;;;4.47;;
11829;SDS011;5972;42.134;24.718;2023-10-13T10:37:35;10.27;;;4.50;;
11829;SDS011;5972;42.134;24.718;2023-10-13T10:40:09;12.85;;;4.53;;
11829;SDS011;5972;42.134;24.718;2023-10-13T10:42:49;14.93;;;4.93;;
11829;SDS011;5972;42.134;24.718;2023-10-13T10:45:17;12.63;;;4.50;;
11829;SDS011;5972;42.134;24.718;2023-10-13T10:47:47;15.82;;;5.15;;
11829;SDS011;5972;42.134;24.718;2023-10-13T10:50:24;14.13;;;4.95;;
11829;SDS011;5972;42.134;24.718;2023-10-13T10:53:02;11.95;;;4.25;;
11829;SDS011;5972;42.134;24.718;2023-10-13T10:55:34;11.32;;;4.68;;
11829;SDS011;5972;42.134;24.718;2023-10-13T10:58:01;9.13;;;4.32;;
11829;SDS011;5972;42.134;24.718;2023-10-13T11:00:31;13.68;;;5.03;;
11829;SDS011;5972;42.134;24.718;2023-10-13T11:03:10;12.05;;;4.65;;
11829;SDS011;5972;42.134;24.718;2023-10-13T11:05:44;10.25;;;4.43;;
11829;SDS011;5972;42.134;24.718;2023-10-13T11:08:23;8.20;;;4.50;;
11829;SDS011;5972;42.134;24.718;2023-10-13T11:10:57;10.50;;;4.45;;
11829;SDS011;5972;42.134;24.718;2023-10-13T11:13:26;7.15;;;4.20;;
11829;SDS011;5972;42.134;24.718;2023-10-13T11:15:56;15.90;;;4.97;;
11829;SDS011;5972;42.134;24.718;2023-10-13T11:18:29;9.32;;;4.60;;
11829;SDS011;5972;42.134;24.718;2023-10-13T11:20:59;14.02;;;4.55;;
11829;SDS011;5972;42.134;24.718;2023-10-13T11:23:31;10.93;;;4.60;;
11829;SDS011;5972;42.134;24.718;2023-10-13T11:26:02;12.95;;;4.82;;
11829;SDS011;5972;42.134;24.718;2023-10-13T11:28:30;16.02;;;4.72;;
11829;SDS011;5972;42.134;24.718;2023-10-13T11:30:59;7.13;;;3.90;;
11829;SDS011;5972;42.134;24.718;2023-10-13T11:33:35;11.23;;;4.30;;
11829;SDS011;5972;42.134;24.718;2023-10-13T11:36:07;9.77;;;4.40;;
11829;SDS011;5972;42.134;24.718;2023-10-13T11:38:43;9.75;;;4.63;;
11829;SDS011;5972;42.134;24.718;2023-10-13T11:41:14;7.65;;;4.20;;
11829;SDS011;5972;42.134;24.718;2023-10-13T11:43:44;10.45;;;4.45;;
11829;SDS011;5972;42.134;24.718;2023-10-13T11:46:35;8.98;;;4.55;;
11829;SDS011;5972;42.134;24.718;2023-10-13T11:49:18;12.10;;;4.43;;
11829;SDS011;5972;42.134;24.718;2023-10-13T11:51:56;9.00;;;4.78;;
11829;SDS011;5972;42.134;24.718;2023-10-13T11:54:35;9.43;;;4.10;;
11829;SDS011;5972;42.134;24.718;2023-10-13T11:57:07;10.98;;;4.43;;
11829;SDS011;5972;42.134;24.718;2023-10-13T11:59:34;8.45;;;4.03;;
11829;SDS011;5972;42.134;24.718;2023-10-13T12:02:09;13.13;;;4.30;;
11829;SDS011;5972;42.134;24.718;2023-10-13T12:04:55;10.52;;;4.18;;
11829;SDS011;5972;42.134;24.718;2023-10-13T12:07:22;15.70;;;4.07;;
11829;SDS011;5972;42.134;24.718;2023-10-13T12:09:53;16.65;;;4.72;;
11829;SDS011;5972;42.134;24.718;2023-10-13T12:12:31;12.27;;;4.65;;
11829;SDS011;5972;42.134;24.718;2023-10-13T12:15:05;11.00;;;4.43;;
11829;SDS011;5972;42.134;24.718;2023-10-13T12:17:39;11.68;;;4.05;;
11829;SDS011;5972;42.134;24.718;2023-10-13T12:20:10;9.15;;;4.15;;
11829;SDS011;5972;42.134;24.718;2023-10-13T12:22:43;9.15;;;4.22;;
11829;SDS011;5972;42.134;24.718;2023-10-13T12:25:21;7.55;;;3.80;;
11829;SDS011;5972;42.134;24.718;2023-10-13T12:28:09;12.13;;;3.88;;
11829;SDS011;5972;42.134;24.718;2023-10-13T12:30:44;14.02;;;4.65;;
11829;SDS011;5972;42.134;24.718;2023-10-13T12:33:15;11.82;;;3.90;;
11829;SDS011;5972;42.134;24.718;2023-10-13T12:35:49;8.98;;;3.70;;
11829;SDS011;5972;42.134;24.718;2023-10-13T12:38:29;25.70;;;4.20;;
11829;SDS011;5972;42.134;24.718;2023-10-13T12:41:17;8.45;;;3.70;;
11829;SDS011;5972;42.134;24.718;2023-10-13T12:44:03;9.82;;;4.28;;
11829;SDS011;5972;42.134;24.718;2023-10-13T12:46:48;10.07;;;4.13;;
11829;SDS011;5972;42.134;24.718;2023-10-13T12:49:33;10.05;;;3.67;;
11829;SDS011;5972;42.134;24.718;2023-10-13T12:52:17;11.93;;;3.60;;
11829;SDS011;5972;42.134;24.718;2023-10-13T12:54:44;8.80;;;3.00;;
11829;SDS011;5972;42.134;24.718;2023-10-13T12:57:14;6.40;;;3.35;;
11829;SDS011;5972;42.134;24.718;2023-10-13T12:59:41;5.45;;;3.05;;
11829;SDS011;5972;42.134;24.718;2023-10-13T13:02:08;7.05;;;2.97;;
11829;SDS011;5972;42.134;24.718;2023-10-13T13:04:40;3.83;;;2.75;;
11829;SDS011;5972;42.134;24.718;2023-10-13T13:07:09;6.20;;;2.78;;
11829;SDS011;5972;42.134;24.718;2023-10-13T13:09:39;4.07;;;2.55;;
11829;SDS011;5972;42.134;24.718;2023-10-13T13:12:06;4.80;;;2.85;;
11829;SDS011;5972;42.134;24.718;2023-10-13T13:14:34;13.15;;;3.45;;
11829;SDS011;5972;42.134;24.718;2023-10-13T13:17:01;4.57;;;2.90;;
11829;SDS011;5972;42.134;24.718;2023-10-13T13:19:31;3.53;;;2.70;;
11829;SDS011;5972;42.134;24.718;2023-10-13T13:22:01;8.60;;;2.80;;
11829;SDS011;5972;42.134;24.718;2023-10-13T13:24:29;6.00;;;2.78;;
11829;SDS011;5972;42.134;24.718;2023-10-13T13:26:56;13.75;;;3.25;;
11829;SDS011;5972;42.134;24.718;2023-10-13T13:29:28;10.75;;;3.50;;
11829;SDS011;5972;42.134;24.718;2023-10-13T13:31:57;12.07;;;3.70;;
11829;SDS011;5972;42.134;24.718;2023-10-13T13:34:25;8.60;;;2.92;;
11829;SDS011;5972;42.134;24.718;2023-10-13T13:36:52;6.97;;;3.78;;
11829;SDS011;5972;42.134;24.718;2023-10-13T13:39:19;10.05;;;3.65;;
11829;SDS011;5972;42.134;24.718;2023-10-13T13:41:54;9.68;;;3.30;;
11829;SDS011;5972;42.134;24.718;2023-10-13T13:44:22;7.32;;;3.75;;
11829;SDS011;5972;42.134;24.718;2023-10-13T13:46:54;9.93;;;3.70;;
11829;SDS011;5972;42.134;24.718;2023-10-13T13:49:23;8.10;;;3.55;;
11829;SDS011;5972;42.134;24.718;2023-10-13T13:52:04;9.25;;;3.10;;
11829;SDS011;5972;42.134;24.718;2023-10-13T13:54:31;10.07;;;3.40;;
11829;SDS011;5972;42.134;24.718;2023-10-13T13:56:58;4.95;;;3.25;;
11829;SDS011;5972;42.134;24.718;2023-10-13T13:59:25;9.15;;;3.55;;
11829;SDS011;5972;42.134;24.718;2023-10-13T14:02:00;16.55;;;3.90;;
11829;SDS011;5972;42.134;24.718;2023-10-13T14:04:32;11.00;;;4.13;;
11829;SDS011;5972;42.134;24.718;2023-10-13T14:06:59;7.70;;;3.25;;
11829;SDS011;5972;42.134;24.718;2023-10-13T14:09:31;15.88;;;3.50;;
11829;SDS011;5972;42.134;24.718;2023-10-13T14:12:05;8.18;;;3.30;;
11829;SDS011;5972;42.134;24.718;2023-10-13T14:14:50;9.85;;;3.72;;
11829;SDS011;5972;42.134;24.718;2023-10-13T14:17:22;8.65;;;3.53;;
11829;SDS011;5972;42.134;24.718;2023-10-13T14:19:55;7.60;;;3.28;;
11829;SDS011;5972;42.134;24.718;2023-10-13T14:22:22;15.55;;;4.22;;
11829;SDS011;5972;42.134;24.718;2023-10-13T14:24:50;6.70;;;3.42;;
11829;SDS011;5972;42.134;24.718;2023-10-13T14:27:20;10.60;;;3.85;;
11829;SDS011;5972;42.134;24.718;2023-10-13T14:29:48;13.85;;;4.15;;
11829;SDS011;5972;42.134;24.718;2023-10-13T14:32:18;10.13;;;4.00;;
11829;SDS011;5972;42.134;24.718;2023-10-13T14:34:51;12.65;;;4.28;;
11829;SDS011;5972;42.134;24.718;2023-10-13T14:37:21;18.98;;;4.43;;
11829;SDS011;5972;42.134;24.718;2023-10-13T14:39:54;13.85;;;5.05;;
11829;SDS011;5972;42.134;24.718;2023-10-13T14:42:22;9.95;;;4.20;;
11829;SDS011;5972;42.134;24.718;2023-10-13T14:44:49;23.73;;;4.13;;
11829;SDS011;5972;42.134;24.718;2023-10-13T14:47:20;16.15;;;4.45;;
11829;SDS011;5972;42.134;24.718;2023-10-13T14:49:52;14.52;;;4.15;;
11829;SDS011;5972;42.134;24.718;2023-10-13T14:52:21;18.65;;;4.50;;
11829;SDS011;5972;42.134;24.718;2023-10-13T14:54:48;15.82;;;4.30;;
11829;SDS011;5972;42.134;24.718;2023-10-13T14:57:20;20.52;;;4.93;;
11829;SDS011;5972;42.134;24.718;2023-10-13T14:59:49;25.85;;;4.75;;
11829;SDS011;5972;42.134;24.718;2023-10-13T15:02:17;15.23;;;4.40;;
11829;SDS011;5972;42.134;24.718;2023-10-13T15:04:44;15.00;;;4.32;;
11829;SDS011;5972;42.134;24.718;2023-10-13T15:07:14;18.75;;;4.78;;
11829;SDS011;5972;42.134;24.718;2023-10-13T15:09:42;13.52;;;4.72;;
11829;SDS011;5972;42.134;24.718;2023-10-13T15:12:09;22.45;;;5.30;;
11829;SDS011;5972;42.134;24.718;2023-10-13T15:14:36;19.42;;;5.30;;
11829;SDS011;5972;42.134;24.718;2023-10-13T15:17:04;17.75;;;5.45;;
11829;SDS011;5972;42.134;24.718;2023-10-13T15:19:32;21.08;;;5.13;;
11829;SDS011;5972;42.134;24.718;2023-10-13T15:22:01;11.05;;;4.88;;
11829;SDS011;5972;42.134;24.718;2023-10-13T15:24:32;23.60;;;4.75;;